Vancouver International Airport
CYVR : rendu visible

Aérodrome :











RETROUVEZ-NOUS SUR...

 
LOGIN :

S'inscrire | Disclaimer

   EN    FR    IT 

 









Légende :    VFR   VFR Marginal   IFR   IFR Intensif   IFR Très Intensif
Visi : 
Plafond : 
>= 8 km
>= 3000ft
5 à 8 km
1000 à 3000 ft
1500m à 5 km
500 à 1000 ft
800 à 1500m
200 à 500 ft
< 800m
< 200 ft
Symboles :   Orages  Brouillard  Fortes neiges  Fortes précipitations  Vent > 20 kt






- Altitude de l'aérodrome : 14 ft
- Code IATA : YVR


CYVR - Vancouver International

DERNIER METAR :
  • 071400Z 29015KT 20SM FEW018 SCT180 BKN220 07/05 A3015 RMK SC1AC2CI4 SLP211

METARs EXPIRÉS :
  • 071300Z 29016KT 20SM FEW024 SCT180 BKN220 07/05 A3012 RMK SC1AC3CI4 SC TR SLP202
  • 071200Z 29015G20KT 20SM FEW027 FEW100 FEW220 BKN240 07/05 A3011 RMK SC1AC1CI1CI3 SC TR SLP197

TAF TAF CYVR
Valide du 07 à 12h jusqu'au 08 à 18h UTC


071141Z 0712/0818 30015KT P6SM FEW025 SCT140
FM071400 30015KT P6SM SCT020
FM072000 28015KT P6SM FEW050
BECMG 0800/0802 28008KT
BECMG 0806/0808 VRB03KT
FM081500 30005KT P6SM FEW150 RMK NXT FCST BY 071500Z



MET'MAP, la Météo Aéronautique d'un coup d'oeil ! - Copyright ORBIFLY Décembre 2007 - Disclaimer

ORBIFLY MET'MAP TEAM :

Programmation & Développement : Alexandra Zaïnal
Sur une idée originale de : Baudouin d'Aumeries
Assistance à la programmation : Marc-Olivier Méhu
Soutien technique & logistique : Manuel Goepfert

Contact : metmap@orbifly.com




SOURCES & CREDITS :

   NOAA       Earth
Advisory